ADDS METAR Data INFO
IDs: Format: Raw Decoded Include TAF

Data at: 1235 UTC 22 Feb 2018

PASX 212156Z AUTO 00000KT 9SM CLR M02/M03 A3044 RMK AO2 SLP319 T10221033 FZRANO
PASX 212133Z AUTO 10003KT 8SM FEW006 M03/M05 A3044 RMK AO2 FZRANO
PASX 212056Z AUTO 09004KT 7SM CLR M04/M05 A3045 RMK AO2 SLP320 60000 T10391050 58006 FZRANO
PASX 211810Z AUTO 06003KT 10SM FEW004 SCT120 M07/M08 A3047 RMK AO2 SNE00 P0000 FZRANO
PASX 211756Z AUTO 08004KT 9SM -SN BKN004 M07/M08 A3046 RMK AO2 SNB50 SLP326 P0000 60000 T10721083 11072 21094 58009 FZRANO
PASX 211743Z AUTO 08004KT 10SM BKN004 OVC110 M07/M08 A3047 RMK AO2 FZRANO
PASX 211712Z AUTO 09003KT 10SM FEW004 OVC120 M07/M08 A3048 RMK AO2 FZRANO
PASX 211656Z AUTO 08004KT 10SM BKN120 M07/M08 A3047 RMK AO2 SLP327 T10721083 FZRANO
PASX 211556Z AUTO 00000KT 10SM FEW005 SCT120 M08/M08 A3049 RMK AO2 SLP335 T10781083 FZRANO
PASX 211552Z AUTO 12003KT 10SM FEW005 M08/M08 A3049 RMK AO2 FZRANO
PASX 211456Z AUTO 00000KT 10SM CLR M08/M09 A3050 RMK AO2 SLP338 T10781089 56012 FZRANO
PASX 211356Z AUTO 28003KT 10SM OVC110 M08/M09 A3050 RMK AO2 SLP340 T10831094 FZRANO
PASX 211256Z AUTO 09004KT 10SM BKN120 M09/M09 A3050 RMK AO2 SLP339 T10891094 FZRANO
PASX 210756Z AUTO 00000KT 9SM FEW003 M09/M11 A3057 RMK AO2 SLP362 T10941106 FZRANO
PASX 210656Z AUTO 27004KT 10SM CLR M10/M11 A3056 RMK AO2 PRESRR SLP359 T11001106 FZRANO
PASX 210556Z AUTO 00000KT 8SM CLR M08/M09 A3054 RMK AO2 SLP351 T10831094 10000 21083 56014 FZRANO